Marcola, OR (97454)

8:10 PM PST on February 07, 2016 (GMT -0800)
APRSWXNET | | Change Station
CLOSE
Current Station
Personal Weather Station
Location: Thurston, OR
Elevation: 574 ft
Nearby Weather Stations

Elev 574 ft 44.07 °N, 122.83 °W | Updated 57 minutes ago

Partly Cloudy
Partly Cloudy
46 °F
Feels Like 46 °F
N
0
Wind Variable Wind from West
Gusts 2.0 mph

Today
High -- | Low -- °F
--% Chance of Precip.
Yesterday
High -- | Low -- °F
Precip. -- in
Pressure 30.46 in
Visibility 0.2 miles
Clouds
Windchill 46 °F
Dew Point 45 °F
Humidity 96%
Rainfall in
Snow Depth Not available.
7:22 AM 5:29 PM
Waning Crescent, 0% visible
METAR KEUG 080354Z 00000KT 1/4SM R16R/2600V5000FT FG VV001 08/08 A3045 RMK AO2 SLP313 T00830078 $
Pressure 30.46 in
Visibility 0.2 miles
Clouds
Windchill 46 °F
Dew Point 45 °F
Humidity 96%
Rainfall in
Snow Depth Not available.
7:22 AM 5:29 PM
Waning Crescent, 0% visible
METAR KEUG 080354Z 00000KT 1/4SM R16R/2600V5000FT FG VV001 08/08 A3045 RMK AO2 SLP313 T00830078 $

10-Day Weather Forecast

Almanac

Astronomy

Feb. 07, 2016 Rise Set
Actual Time
Civil Twilight
Nautical Twilight
Astronomical Twilight
Moon
Length of Visible Light
Length of Day
Tomorrow will be .
, % of the Moon is Illuminated

Today's Extremes

State Highs State Lows

Community

WunderPhotos

Upload Photos

1,891,378 photos uploaded!

WunderBlog® & News

Nearby

Air Quality

  Air Quality AQ Index Pollutant
Not available.

Snow Depth

Station Depth Elevation

Earthquake Activity

City Distance Mag. Time & Date
Minimum magnitude displayed is 2.5.

Coastal Water Temperatures

Place Temperature

Stations

Nearby Weather Stations

Station Location Temp. Windchill Dew Point Humidity Wind Precip. Elev Updated Type
                   

Watches & Warnings

There are currently no watches in effect.